createdAt,value
2023-04-26T00:03:02.175Z,8.57
2023-04-26T00:09:05.360Z,6.25
2023-04-26T00:15:10.721Z,8.25
2023-04-26T00:21:13.023Z,10.00
2023-04-26T00:27:14.830Z,4.88
2023-04-26T00:33:16.743Z,5.00
2023-04-26T00:39:18.559Z,6.07
2023-04-26T00:45:20.626Z,7.57
2023-04-26T00:51:22.573Z,6.28
2023-04-26T00:57:24.718Z,8.50
2023-04-26T01:03:26.907Z,12.23
2023-04-26T01:09:32.505Z,9.05
2023-04-26T01:15:37.306Z,6.18
2023-04-26T01:21:40.717Z,5.20
2023-04-26T01:27:42.800Z,7.82
2023-04-26T01:33:44.564Z,7.70
2023-04-26T01:39:47.117Z,5.55
2023-04-26T01:45:48.954Z,6.53
2023-04-26T01:52:05.877Z,6.45
2023-04-26T01:58:07.801Z,9.40
2023-04-26T02:04:10.223Z,9.35
2023-04-26T02:10:12.077Z,8.85
2023-04-26T02:16:16.171Z,8.20
2023-04-26T02:22:18.146Z,11.75
2023-04-26T02:28:19.938Z,15.30
2023-04-26T02:34:22.424Z,13.00
2023-04-26T02:40:25.172Z,7.80
2023-04-26T02:46:27.063Z,10.27
2023-04-26T02:52:28.921Z,11.15
2023-04-26T02:58:30.709Z,15.48
2023-04-26T03:04:34.350Z,12.60
2023-04-26T03:10:36.287Z,10.43
2023-04-26T03:16:42.977Z,12.68
2023-04-26T03:22:45.057Z,7.65
2023-04-26T03:28:47.372Z,11.82
2023-04-26T03:34:49.939Z,11.07
2023-04-26T03:40:51.872Z,9.35
2023-04-26T03:46:53.781Z,11.10
2023-04-26T03:52:55.676Z,11.20
2023-04-26T03:58:57.600Z,8.13
2023-04-26T04:05:01.588Z,8.98
2023-04-26T04:11:03.563Z,15.68
2023-04-26T04:17:06.551Z,10.60
2023-04-26T04:23:10.012Z,16.15
2023-04-26T04:29:13.348Z,13.27
2023-04-26T04:35:15.448Z,13.75
2023-04-26T04:41:17.334Z,12.20
2023-04-26T04:47:19.404Z,16.30
2023-04-26T04:53:22.198Z,12.05
2023-04-26T04:59:24.706Z,12.68
2023-04-26T05:05:27.260Z,18.13
2023-04-26T05:11:29.195Z,20.77
2023-04-26T05:17:32.430Z,12.77
2023-04-26T05:23:38.231Z,16.77
2023-04-26T05:29:40.650Z,12.40
2023-04-26T05:35:52.597Z,21.75
2023-04-26T05:41:54.943Z,11.48
2023-04-26T05:47:57.092Z,27.35
2023-04-26T05:54:00.217Z,20.88
2023-04-26T06:00:04.098Z,18.02
2023-04-26T06:06:15.972Z,17.73
2023-04-26T06:12:18.004Z,23.58
2023-04-26T06:18:21.140Z,21.33
2023-04-26T06:24:26.221Z,17.25
2023-04-26T06:30:28.247Z,24.17
2023-04-26T06:36:31.335Z,16.63
2023-04-26T06:42:33.279Z,18.25
2023-04-26T06:48:48.420Z,15.18
2023-04-26T06:54:56.909Z,22.10
2023-04-26T07:00:59.545Z,18.83
2023-04-26T07:07:01.353Z,19.65
2023-04-26T07:13:03.209Z,16.63
2023-04-26T07:19:05.100Z,20.35
2023-04-26T07:25:07.507Z,16.80
2023-04-26T07:31:10.687Z,15.98
2023-04-26T07:37:12.780Z,16.77
2023-04-26T07:43:15.552Z,14.93
2023-04-26T07:49:17.488Z,17.17
2023-04-26T07:55:19.306Z,14.95
2023-04-26T08:01:21.115Z,15.82
2023-04-26T08:07:23.048Z,13.38
2023-04-26T08:13:26.997Z,10.13
2023-04-26T08:19:31.681Z,17.35
2023-04-26T08:25:36.242Z,11.45
2023-04-26T08:31:38.576Z,15.25
2023-04-26T08:37:40.646Z,10.30
2023-04-26T08:43:43.462Z,14.60
2023-04-26T08:49:57.628Z,10.85
2023-04-26T08:56:01.188Z,8.13
2023-04-26T09:02:06.959Z,9.55
2023-04-26T09:08:09.520Z,11.18
2023-04-26T09:14:11.439Z,13.15
2023-04-26T09:20:30.663Z,12.85
2023-04-26T09:26:32.541Z,22.98
2023-04-26T09:32:57.332Z,10.68
2023-04-26T09:39:01.078Z,5.57
2023-04-26T09:45:07.142Z,9.80
2023-04-26T09:51:13.909Z,10.18
2023-04-26T09:57:17.209Z,12.15
2023-04-26T10:03:20.975Z,8.43
2023-04-26T10:09:22.943Z,9.90
2023-04-26T10:15:24.766Z,11.77
2023-04-26T10:21:35.424Z,10.65
2023-04-26T10:27:43.386Z,11.48
2023-04-26T10:34:05.116Z,7.32
2023-04-26T10:40:31.629Z,7.82
2023-04-26T10:46:39.483Z,14.32
2023-04-26T11:05:47.878Z,7.38
2023-04-26T11:11:55.684Z,7.30
2023-04-26T11:23:59.723Z,8.35
2023-04-26T11:30:05.162Z,10.13
2023-04-26T11:36:07.281Z,8.93
2023-04-26T11:42:11.675Z,7.10
2023-04-26T11:48:15.235Z,8.57
2023-04-26T11:54:30.926Z,9.40
2023-04-26T12:00:32.816Z,7.53
2023-04-26T12:06:46.763Z,10.95
2023-04-26T12:12:52.235Z,9.70
2023-04-26T12:18:56.774Z,7.82
2023-04-26T12:25:08.550Z,6.40
2023-04-26T12:31:10.492Z,9.02
2023-04-26T12:37:12.334Z,8.52
2023-04-26T12:43:15.818Z,9.15
2023-04-26T12:49:17.735Z,13.13
2023-04-26T12:55:19.819Z,7.28
2023-04-26T13:01:21.826Z,7.22
2023-04-26T13:07:23.864Z,8.32
2023-04-26T13:13:32.253Z,8.82
2023-04-26T13:19:38.088Z,11.40
2023-04-26T13:25:40.902Z,9.40
2023-04-26T13:31:43.274Z,8.95
2023-04-26T13:37:45.553Z,6.35
2023-04-26T13:43:47.465Z,7.75
2023-04-26T13:49:51.124Z,6.18
2023-04-26T13:55:53.012Z,9.73
2023-04-26T14:01:57.554Z,7.40
2023-04-26T14:08:00.921Z,9.35
2023-04-26T14:14:02.841Z,10.27
2023-04-26T14:20:05.499Z,10.02
2023-04-26T14:26:07.371Z,7.53
2023-04-26T14:32:09.285Z,9.85
2023-04-26T14:38:14.252Z,8.52
2023-04-26T14:44:16.240Z,3.85
2023-04-26T14:50:19.888Z,7.38
2023-04-26T14:56:22.039Z,7.10
2023-04-26T15:02:23.998Z,9.88
2023-04-26T15:08:26.564Z,5.78
2023-04-26T15:14:28.445Z,11.65
2023-04-26T15:20:30.447Z,6.43
2023-04-26T15:26:32.832Z,9.60
2023-04-26T15:32:49.270Z,6.70
2023-04-26T15:38:51.262Z,13.35
2023-04-26T15:44:53.164Z,6.25
2023-04-26T15:50:56.726Z,9.45
2023-04-26T15:56:58.841Z,11.77
2023-04-26T16:03:02.196Z,4.90
2023-04-26T16:09:25.189Z,9.02
2023-04-26T16:15:27.749Z,7.70
2023-04-26T16:28:11.920Z,7.28
2023-04-26T16:34:20.278Z,6.33
2023-04-26T16:40:23.565Z,7.90
2023-04-26T16:46:25.499Z,6.43
2023-04-26T16:52:27.655Z,7.75
2023-04-26T17:11:46.422Z,5.85
2023-04-26T17:17:48.224Z,6.20
2023-04-26T17:23:50.272Z,10.63
2023-04-26T17:29:52.128Z,6.05
2023-04-26T17:35:53.907Z,8.27
2023-04-26T17:41:56.192Z,8.77
2023-04-26T17:47:58.059Z,10.65
2023-04-26T17:53:59.865Z,7.68
2023-04-26T18:00:01.823Z,5.80
2023-04-26T18:06:09.261Z,6.82
2023-04-26T18:12:11.103Z,6.65
2023-04-26T18:18:12.927Z,4.82
2023-04-26T18:24:14.758Z,8.88
2023-04-26T18:30:18.262Z,7.97
2023-04-26T18:36:20.080Z,7.47
2023-04-26T18:42:21.872Z,7.55
2023-04-26T18:48:23.646Z,10.07
2023-04-26T18:54:26.329Z,5.20
2023-04-26T19:00:28.116Z,8.02
2023-04-26T19:06:29.963Z,8.15
2023-04-26T19:12:31.767Z,7.03
2023-04-26T19:18:33.642Z,7.10
2023-04-26T19:24:35.864Z,6.88
2023-04-26T19:30:37.704Z,7.00
2023-04-26T19:36:39.556Z,8.20
2023-04-26T19:42:41.346Z,9.40
2023-04-26T19:48:43.385Z,6.80
2023-04-26T19:54:45.195Z,11.02
2023-04-26T20:00:47.544Z,8.52
2023-04-26T20:06:49.472Z,7.50
2023-04-26T20:12:51.806Z,9.23
2023-04-26T20:18:53.639Z,10.25
2023-04-26T20:24:55.474Z,8.15
2023-04-26T20:30:57.266Z,7.97
2023-04-26T20:36:59.254Z,9.20
2023-04-26T20:43:01.563Z,11.25
2023-04-26T20:49:03.389Z,10.68
2023-04-26T20:55:05.677Z,10.73
2023-04-26T21:01:07.915Z,7.75
2023-04-26T21:07:10.551Z,8.70
2023-04-26T21:13:13.910Z,10.93
2023-04-26T21:19:15.758Z,9.85
2023-04-26T21:25:19.651Z,10.00
2023-04-26T21:31:21.657Z,9.90
2023-04-26T21:37:23.734Z,9.88
2023-04-26T21:43:25.761Z,9.00
2023-04-26T21:49:27.538Z,7.70
2023-04-26T21:55:29.326Z,8.32
2023-04-26T22:01:31.209Z,13.45
2023-04-26T22:07:33.965Z,10.68
2023-04-26T22:13:35.826Z,10.25
2023-04-26T22:19:37.624Z,12.10
2023-04-26T22:25:39.491Z,9.07
2023-04-26T22:31:41.387Z,12.02
2023-04-26T22:37:43.230Z,8.93
2023-04-26T22:43:45.071Z,9.65
2023-04-26T22:49:46.841Z,11.68
2023-04-26T22:55:48.722Z,10.27
2023-04-26T23:01:50.565Z,9.52
2023-04-26T23:07:52.520Z,9.23
2023-04-26T23:13:54.796Z,8.63
2023-04-26T23:19:56.593Z,9.13
2023-04-26T23:25:58.456Z,11.13
2023-04-26T23:32:00.423Z,10.82
2023-04-26T23:38:02.309Z,9.30
2023-04-26T23:44:04.375Z,15.43
2023-04-26T23:50:07.485Z,10.55
2023-04-26T23:56:09.625Z,14.38
